createdAt,value
2017-11-12T00:02:11.867Z,23.87
2017-11-12T00:04:39.602Z,22.90
2017-11-12T00:07:07.217Z,20.45
2017-11-12T00:09:34.961Z,21.80
2017-11-12T00:12:02.648Z,27.15
2017-11-12T00:14:30.248Z,23.75
2017-11-12T00:16:57.872Z,25.73
2017-11-12T00:19:26.823Z,22.00
2017-11-12T00:21:54.494Z,22.35
2017-11-12T00:24:22.114Z,22.35
2017-11-12T00:26:50.456Z,28.27
2017-11-12T00:29:18.057Z,21.52
2017-11-12T00:31:46.471Z,24.92
2017-11-12T00:34:14.205Z,27.48
2017-11-12T00:36:41.809Z,22.98
2017-11-12T00:39:09.414Z,19.02
2017-11-12T00:41:37.787Z,34.00
2017-11-12T00:44:06.210Z,25.62
2017-11-12T00:46:33.985Z,29.50
2017-11-12T00:49:01.607Z,26.20
2017-11-12T00:51:30.018Z,25.88
2017-11-12T00:53:57.601Z,22.27
2017-11-12T00:56:26.038Z,26.70
2017-11-12T00:58:53.713Z,28.62
2017-11-12T01:01:21.534Z,24.75
2017-11-12T01:03:49.450Z,27.60
2017-11-12T01:06:17.063Z,29.33
2017-11-12T01:08:44.695Z,20.55
2017-11-12T01:11:12.272Z,29.65
2017-11-12T01:13:39.915Z,27.67
2017-11-12T01:16:07.550Z,26.17
2017-11-12T01:18:35.204Z,25.45
2017-11-12T01:21:02.875Z,23.33
2017-11-12T01:23:30.505Z,28.50
2017-11-12T01:25:58.102Z,29.75
2017-11-12T01:28:25.725Z,23.60
2017-11-12T01:30:53.306Z,21.65
2017-11-12T01:33:21.787Z,25.50
2017-11-12T01:35:49.445Z,26.12
2017-11-12T01:38:17.823Z,28.92
2017-11-12T01:40:46.213Z,28.60
2017-11-12T01:43:14.098Z,26.62
2017-11-12T01:45:41.737Z,24.27
2017-11-12T01:48:09.317Z,30.98
2017-11-12T01:50:36.915Z,28.80
2017-11-12T01:53:04.597Z,27.10
2017-11-12T01:55:33.671Z,32.20
2017-11-12T01:58:01.298Z,26.83
2017-11-12T02:00:29.699Z,30.60
2017-11-12T02:02:57.289Z,28.75
2017-11-12T02:05:25.018Z,27.40
2017-11-12T02:07:52.634Z,34.65
2017-11-12T02:10:20.366Z,27.58
2017-11-12T02:12:47.943Z,34.50
2017-11-12T02:15:16.283Z,27.42
2017-11-12T02:17:44.007Z,32.97
2017-11-12T02:20:11.637Z,33.38
2017-11-12T02:22:40.108Z,28.27
2017-11-12T02:25:08.546Z,29.90
2017-11-12T02:27:36.182Z,29.17
2017-11-12T02:30:04.704Z,30.88
2017-11-12T02:32:32.360Z,27.80
2017-11-12T02:35:00.812Z,31.00
2017-11-12T02:37:28.425Z,26.98
2017-11-12T02:39:56.729Z,25.83
2017-11-12T02:42:24.314Z,25.75
2017-11-12T02:44:51.943Z,28.70
2017-11-12T02:47:19.609Z,34.00
2017-11-12T02:49:47.216Z,26.42
2017-11-12T02:52:14.826Z,36.20
2017-11-12T02:54:42.484Z,33.25
2017-11-12T02:57:10.076Z,35.17
2017-11-12T02:59:37.743Z,26.95
2017-11-12T03:02:05.393Z,37.55
2017-11-12T03:04:33.740Z,27.65
2017-11-12T03:07:01.370Z,29.70
2017-11-12T03:09:28.963Z,39.25
2017-11-12T03:11:56.589Z,37.85
2017-11-12T03:14:24.252Z,37.40
2017-11-12T03:16:51.909Z,29.40
2017-11-12T03:19:19.516Z,34.55
2017-11-12T03:21:47.924Z,28.62
2017-11-12T03:24:17.031Z,29.85
2017-11-12T03:26:44.654Z,34.33
2017-11-12T03:29:12.310Z,29.08
2017-11-12T03:31:39.943Z,31.70
2017-11-12T03:34:07.685Z,28.67
2017-11-12T03:36:35.298Z,24.42
2017-11-12T03:39:02.905Z,30.00
2017-11-12T03:41:30.540Z,25.62
2017-11-12T03:43:58.886Z,34.08
2017-11-12T03:46:26.548Z,29.40
2017-11-12T03:48:54.210Z,33.28
2017-11-12T03:51:22.519Z,33.22
2017-11-12T03:53:50.896Z,26.48
2017-11-12T03:56:19.274Z,30.15
2017-11-12T03:58:47.643Z,31.35
2017-11-12T04:01:15.298Z,32.47
2017-11-12T04:03:42.921Z,34.00
2017-11-12T04:06:10.622Z,29.33
2017-11-12T04:08:38.225Z,32.17
2017-11-12T04:11:06.491Z,29.23
2017-11-12T04:13:34.094Z,26.20
2017-11-12T04:16:01.705Z,31.05
2017-11-12T04:18:29.283Z,26.75
2017-11-12T04:20:56.937Z,21.42
2017-11-12T04:23:24.579Z,22.00
2017-11-12T04:25:52.178Z,23.55
2017-11-12T04:28:20.539Z,29.20
2017-11-12T04:30:48.185Z,23.15
2017-11-12T04:33:16.672Z,27.20
2017-11-12T04:35:44.256Z,28.55
2017-11-12T04:38:11.911Z,22.55
2017-11-12T04:40:39.545Z,28.58
2017-11-12T04:43:07.921Z,25.42
2017-11-12T04:45:36.322Z,30.00
2017-11-12T04:48:03.896Z,28.70
2017-11-12T04:50:31.509Z,31.70
2017-11-12T04:52:59.119Z,22.65
2017-11-12T04:55:26.727Z,31.77
2017-11-12T04:57:55.152Z,29.02
2017-11-12T05:00:22.759Z,26.52
2017-11-12T05:02:50.398Z,26.65
2017-11-12T05:05:18.125Z,29.48
2017-11-12T05:07:45.732Z,30.98
2017-11-12T05:10:13.396Z,27.58
2017-11-12T05:12:40.997Z,26.62
2017-11-12T05:15:08.628Z,25.17
2017-11-12T05:17:36.253Z,25.62
2017-11-12T05:20:03.871Z,28.85
2017-11-12T05:22:32.420Z,30.35
2017-11-12T05:25:00.030Z,32.83
2017-11-12T05:27:28.418Z,28.70
2017-11-12T05:29:56.037Z,22.48
2017-11-12T05:32:24.402Z,31.92
2017-11-12T05:34:52.035Z,33.28
2017-11-12T05:37:19.641Z,32.78
2017-11-12T05:39:48.063Z,29.48
2017-11-12T05:42:15.662Z,30.75
2017-11-12T05:44:43.308Z,30.95
2017-11-12T05:47:10.898Z,41.97
2017-11-12T05:49:38.565Z,36.08
2017-11-12T05:52:06.206Z,30.98
2017-11-12T05:54:33.765Z,44.20
2017-11-12T05:57:01.594Z,34.83
2017-11-12T05:59:30.048Z,42.83
2017-11-12T06:01:57.650Z,33.75
2017-11-12T06:04:25.309Z,35.63
2017-11-12T06:06:52.978Z,37.85
2017-11-12T06:09:20.676Z,37.97
2017-11-12T06:11:48.328Z,44.63
2017-11-12T06:14:15.980Z,51.65
2017-11-12T06:16:43.558Z,45.38
2017-11-12T06:19:11.194Z,39.00
2017-11-12T06:21:38.767Z,38.40
2017-11-12T06:24:07.194Z,38.13
2017-11-12T06:26:35.609Z,40.88
2017-11-12T06:29:03.239Z,44.67
2017-11-12T06:31:30.875Z,46.83
2017-11-12T06:33:59.295Z,41.17
2017-11-12T06:36:27.029Z,53.10
2017-11-12T06:38:55.408Z,46.00
2017-11-12T06:41:25.261Z,48.60
2017-11-12T06:43:52.899Z,45.92
2017-11-12T06:46:20.615Z,49.97
2017-11-12T06:48:48.258Z,37.15
2017-11-12T06:51:15.845Z,48.15
2017-11-12T06:53:43.465Z,49.17
2017-11-12T06:56:11.089Z,49.70
2017-11-12T06:58:39.462Z,48.15
2017-11-12T07:01:07.854Z,52.85
2017-11-12T07:03:35.516Z,54.97
2017-11-12T07:06:03.178Z,48.63
2017-11-12T07:08:31.622Z,46.88
2017-11-12T07:11:00.028Z,47.35
2017-11-12T07:13:28.430Z,41.60
2017-11-12T07:15:56.065Z,47.60
2017-11-12T07:18:24.519Z,43.08
2017-11-12T07:20:52.121Z,58.20
2017-11-12T07:23:20.506Z,59.70
2017-11-12T07:25:48.138Z,41.78
2017-11-12T07:28:15.710Z,43.00
2017-11-12T07:30:44.140Z,47.62
2017-11-12T07:33:11.724Z,40.97
2017-11-12T07:35:39.423Z,49.13
2017-11-12T07:38:07.890Z,41.15
2017-11-12T07:40:35.556Z,40.08
2017-11-12T07:43:03.236Z,42.85
2017-11-12T07:45:30.879Z,41.33
2017-11-12T07:47:59.241Z,44.58
2017-11-12T07:50:26.889Z,49.90
2017-11-12T07:52:54.470Z,49.97
2017-11-12T07:55:22.088Z,47.97
2017-11-12T07:57:50.518Z,51.22
2017-11-12T08:00:18.225Z,54.55
2017-11-12T08:02:45.837Z,47.60
2017-11-12T08:05:13.449Z,40.60
2017-11-12T08:07:41.054Z,35.15
2017-11-12T08:10:08.756Z,42.05
2017-11-12T08:12:36.373Z,33.83
2017-11-12T08:15:04.737Z,45.58
2017-11-12T08:17:32.483Z,48.13
2017-11-12T08:20:00.077Z,44.25
2017-11-12T08:22:27.655Z,39.83
2017-11-12T08:24:56.053Z,52.33
2017-11-12T08:27:23.647Z,45.70
2017-11-12T08:29:51.386Z,50.53
2017-11-12T08:32:18.973Z,42.30
2017-11-12T08:34:46.643Z,43.00
2017-11-12T08:37:14.261Z,45.55
2017-11-12T08:39:41.920Z,40.65
2017-11-12T08:42:09.586Z,50.92
2017-11-12T08:44:37.230Z,44.33
2017-11-12T08:47:05.634Z,40.05
2017-11-12T08:49:33.245Z,40.90
2017-11-12T08:52:00.929Z,46.37
2017-11-12T08:54:29.374Z,50.75
2017-11-12T08:56:57.028Z,41.53
2017-11-12T08:59:24.721Z,45.33
2017-11-12T09:01:52.377Z,49.75
2017-11-12T09:04:20.013Z,50.85
2017-11-12T09:06:47.638Z,45.28
2017-11-12T09:09:15.319Z,43.38
2017-11-12T09:11:42.931Z,53.42
2017-11-12T09:14:11.335Z,35.70
2017-11-12T09:16:39.710Z,35.72
2017-11-12T09:19:08.293Z,41.45
2017-11-12T09:21:36.001Z,36.72
2017-11-12T09:24:04.433Z,28.05
2017-11-12T09:26:32.820Z,26.92
2017-11-12T09:29:00.445Z,30.37
2017-11-12T09:31:28.027Z,40.97
2017-11-12T09:33:56.424Z,26.77
2017-11-12T09:36:24.827Z,23.02
2017-11-12T09:38:52.459Z,20.67
2017-11-12T09:41:20.329Z,26.62
2017-11-12T09:43:47.990Z,32.25
2017-11-12T09:46:15.618Z,26.52
2017-11-12T09:48:44.025Z,24.17
2017-11-12T09:51:11.662Z,23.33
2017-11-12T09:53:40.116Z,19.70
2017-11-12T09:56:08.477Z,16.73
2017-11-12T09:58:36.918Z,25.67
2017-11-12T10:01:04.580Z,25.35
2017-11-12T10:03:34.303Z,23.12
2017-11-12T10:06:01.899Z,23.80
2017-11-12T10:08:31.246Z,28.92
2017-11-12T10:10:59.547Z,24.15
2017-11-12T10:13:27.299Z,24.60
2017-11-12T10:15:54.961Z,23.33
2017-11-12T10:18:23.597Z,25.90
2017-11-12T10:20:51.304Z,24.80
2017-11-12T10:23:19.014Z,28.20
2017-11-12T10:25:46.736Z,26.30
2017-11-12T10:28:14.404Z,20.90
2017-11-12T10:30:42.130Z,19.62
2017-11-12T10:33:09.828Z,16.33
2017-11-12T10:35:38.098Z,19.50
2017-11-12T10:38:05.884Z,22.67
2017-11-12T10:40:33.601Z,20.83
2017-11-12T10:43:01.221Z,19.62
2017-11-12T10:45:28.820Z,20.45
2017-11-12T10:47:57.587Z,18.10
2017-11-12T10:50:25.173Z,19.25
2017-11-12T10:52:52.807Z,14.93
2017-11-12T10:55:21.503Z,15.43
2017-11-12T10:57:52.171Z,14.73
2017-11-12T11:00:19.833Z,25.15
2017-11-12T11:02:47.468Z,21.33
2017-11-12T11:05:15.174Z,19.87
2017-11-12T11:07:42.824Z,15.23
2017-11-12T11:10:10.492Z,13.70
2017-11-12T11:12:38.342Z,13.60
2017-11-12T11:15:06.033Z,16.70
2017-11-12T11:17:33.941Z,16.10
2017-11-12T11:20:01.532Z,19.65
2017-11-12T11:22:29.225Z,13.07
2017-11-12T11:24:56.886Z,14.43
2017-11-12T11:27:24.529Z,15.00
2017-11-12T11:29:53.009Z,18.10
2017-11-12T11:32:21.459Z,17.15
2017-11-12T11:34:49.174Z,11.73
2017-11-12T11:37:16.838Z,20.90
2017-11-12T11:39:44.499Z,14.63
2017-11-12T11:42:12.161Z,23.42
2017-11-12T11:44:40.505Z,24.27
2017-11-12T11:47:08.833Z,18.30
2017-11-12T11:49:36.543Z,22.17
2017-11-12T11:52:04.325Z,17.20
2017-11-12T11:54:32.774Z,14.02
2017-11-12T11:57:00.387Z,18.33
2017-11-12T11:59:28.015Z,17.62
2017-11-12T12:01:56.430Z,16.05
2017-11-12T12:04:24.043Z,22.33
2017-11-12T12:06:52.452Z,12.95
2017-11-12T12:09:20.973Z,17.12
2017-11-12T12:11:49.525Z,19.40
2017-11-12T12:14:17.296Z,12.98
2017-11-12T12:16:44.988Z,11.75
2017-11-12T12:19:12.594Z,13.48
2017-11-12T12:21:40.251Z,17.52
2017-11-12T12:24:08.866Z,19.98
2017-11-12T12:26:36.482Z,17.05
2017-11-12T12:29:04.289Z,17.42
2017-11-12T12:31:31.964Z,15.25
2017-11-12T12:33:59.674Z,15.70
2017-11-12T12:36:31.544Z,16.10
2017-11-12T12:38:59.458Z,12.93
2017-11-12T12:41:27.066Z,15.95
2017-11-12T12:43:54.659Z,14.32
2017-11-12T12:46:22.308Z,14.82
2017-11-12T12:48:50.883Z,13.68
2017-11-12T12:51:18.619Z,20.40
2017-11-12T12:53:46.252Z,21.85
2017-11-12T12:56:14.145Z,16.25
2017-11-12T12:58:41.777Z,12.77
2017-11-12T13:01:09.390Z,20.88
2017-11-12T13:03:38.835Z,20.77
2017-11-12T13:06:06.529Z,19.27
2017-11-12T13:08:34.129Z,20.45
2017-11-12T13:11:02.579Z,16.60
2017-11-12T13:13:30.236Z,12.63
2017-11-12T13:15:58.008Z,25.27
2017-11-12T13:18:25.708Z,14.02
2017-11-12T13:20:53.344Z,17.37
2017-11-12T13:23:21.087Z,14.00
2017-11-12T13:25:48.800Z,13.38
2017-11-12T13:28:16.633Z,17.08
2017-11-12T13:30:44.326Z,16.73
2017-11-12T13:33:12.027Z,13.43
2017-11-12T13:35:40.472Z,18.87
2017-11-12T13:38:08.079Z,20.58
2017-11-12T13:40:35.822Z,16.65
2017-11-12T13:43:04.429Z,18.10
2017-11-12T13:45:32.237Z,17.42
2017-11-12T13:47:59.853Z,17.98
2017-11-12T13:50:30.551Z,18.60
2017-11-12T13:52:58.968Z,18.55
2017-11-12T13:55:26.751Z,16.42
2017-11-12T13:57:54.454Z,14.07
2017-11-12T14:00:23.171Z,16.45
2017-11-12T14:02:51.056Z,14.23
2017-11-12T14:05:23.027Z,14.25
2017-11-12T14:07:50.747Z,17.02
2017-11-12T14:10:19.104Z,12.05
2017-11-12T14:12:46.728Z,21.67
2017-11-12T14:15:14.378Z,13.90
2017-11-12T14:17:41.969Z,16.40
2017-11-12T14:20:09.756Z,11.05
2017-11-12T14:22:37.396Z,12.10
2017-11-12T14:25:05.766Z,11.98
2017-11-12T14:27:35.148Z,9.93
2017-11-12T14:30:02.757Z,11.10
2017-11-12T14:32:30.404Z,13.88
2017-11-12T14:34:58.002Z,13.90
2017-11-12T14:37:25.661Z,12.55
2017-11-12T14:39:53.314Z,10.65
2017-11-12T14:42:20.957Z,11.45
2017-11-12T14:44:49.382Z,11.75
2017-11-12T14:47:16.995Z,13.62
2017-11-12T14:49:44.616Z,11.50
2017-11-12T14:52:12.216Z,8.35
2017-11-12T14:54:39.842Z,10.13
2017-11-12T14:57:07.489Z,10.13
2017-11-12T14:59:35.878Z,12.15
2017-11-12T15:02:03.498Z,9.00
2017-11-12T15:04:31.159Z,10.90
2017-11-12T15:06:58.789Z,11.32
2017-11-12T15:09:26.490Z,8.30
2017-11-12T15:11:54.103Z,9.98
2017-11-12T15:14:22.776Z,7.05
2017-11-12T15:16:50.403Z,7.45
2017-11-12T15:19:18.796Z,7.50
2017-11-12T15:21:46.397Z,8.18
2017-11-12T15:24:13.987Z,4.60
2017-11-12T15:26:41.656Z,6.68
2017-11-12T15:29:10.041Z,6.22
2017-11-12T15:31:38.425Z,5.15
2017-11-12T15:34:06.827Z,6.90
2017-11-12T15:36:34.372Z,7.43
2017-11-12T15:39:02.777Z,6.25
2017-11-12T15:41:30.344Z,5.25
2017-11-12T15:43:58.653Z,6.82
2017-11-12T15:46:26.370Z,7.65
2017-11-12T15:48:54.025Z,6.57
2017-11-12T15:51:21.931Z,6.20
2017-11-12T15:53:49.565Z,9.55
2017-11-12T15:56:17.232Z,8.55
2017-11-12T15:58:44.844Z,5.75
2017-11-12T16:01:12.434Z,8.43
2017-11-12T16:03:40.031Z,7.90
2017-11-12T16:06:07.639Z,11.73
2017-11-12T16:08:36.035Z,7.07
2017-11-12T16:11:04.432Z,8.00
2017-11-12T16:13:32.075Z,8.18
2017-11-12T16:15:59.707Z,10.90
2017-11-12T16:18:27.396Z,14.55
2017-11-12T16:20:55.045Z,9.35
2017-11-12T16:23:23.473Z,9.93
2017-11-12T16:25:51.096Z,12.43
2017-11-12T16:28:19.484Z,8.43
2017-11-12T16:30:47.250Z,7.32
2017-11-12T16:33:14.865Z,8.23
2017-11-12T16:35:43.080Z,12.50
2017-11-12T16:38:11.373Z,9.75
2017-11-12T16:40:38.983Z,8.10
2017-11-12T16:43:06.587Z,8.20
2017-11-12T16:45:34.334Z,7.30
2017-11-12T16:48:02.720Z,6.62
2017-11-12T16:50:30.299Z,9.25
2017-11-12T16:52:57.939Z,7.20
2017-11-12T16:55:26.325Z,8.80
2017-11-12T16:57:53.985Z,6.20
2017-11-12T17:00:21.813Z,8.57
2017-11-12T17:02:49.515Z,9.98
2017-11-12T17:05:17.186Z,6.28
2017-11-12T17:07:44.850Z,8.80
2017-11-12T17:10:12.509Z,11.25
2017-11-12T17:12:40.170Z,11.27
2017-11-12T17:15:07.819Z,6.35
2017-11-12T17:17:35.443Z,9.27
2017-11-12T17:20:03.137Z,6.55
2017-11-12T17:22:31.527Z,8.25
2017-11-12T17:25:00.659Z,6.40
2017-11-12T17:27:28.295Z,9.60
2017-11-12T17:29:56.042Z,3.85
2017-11-12T17:32:23.682Z,6.03
2017-11-12T17:34:51.293Z,6.90
2017-11-12T17:37:18.937Z,6.62
2017-11-12T17:39:46.593Z,10.75
2017-11-12T17:42:14.632Z,8.27
2017-11-12T17:44:42.237Z,10.43
2017-11-12T17:47:09.847Z,4.75
2017-11-12T17:49:37.426Z,12.02
2017-11-12T17:52:05.046Z,4.43
2017-11-12T17:54:32.679Z,3.35
2017-11-12T17:57:00.290Z,6.20
2017-11-12T17:59:28.733Z,5.75
2017-11-12T18:01:56.381Z,5.57
2017-11-12T18:04:24.042Z,5.00
2017-11-12T18:06:51.788Z,4.75
2017-11-12T18:09:20.143Z,7.03
2017-11-12T18:11:47.820Z,4.57
2017-11-12T18:14:15.466Z,8.30
2017-11-12T18:16:43.159Z,5.47
2017-11-12T18:19:10.898Z,7.97
2017-11-12T18:21:38.504Z,5.25
2017-11-12T18:24:06.296Z,8.35
2017-11-12T18:26:33.944Z,4.57
2017-11-12T18:29:01.552Z,5.80
2017-11-12T18:31:29.160Z,7.28
2017-11-12T18:33:56.756Z,6.05
2017-11-12T18:36:24.353Z,8.65
2017-11-12T18:38:52.029Z,6.12
2017-11-12T18:41:19.713Z,7.87
2017-11-12T18:43:47.326Z,6.28
2017-11-12T18:46:14.927Z,13.45
2017-11-12T18:48:42.570Z,6.10
2017-11-12T18:51:15.647Z,3.55
2017-11-12T18:53:43.357Z,5.40
2017-11-12T18:59:18.259Z,9.10
2017-11-12T19:01:47.457Z,6.97
2017-11-12T19:04:20.756Z,7.78
2017-11-12T19:06:53.981Z,10.95
2017-11-12T19:09:26.067Z,6.82
2017-11-12T19:11:53.808Z,7.40
2017-11-12T19:14:21.608Z,9.35
2017-11-12T19:16:50.976Z,7.28
2017-11-12T19:19:27.185Z,7.15
2017-11-12T19:21:59.502Z,12.27
2017-11-12T19:24:43.866Z,5.70
2017-11-12T19:27:12.414Z,7.18
2017-11-12T19:29:40.152Z,11.55
2017-11-12T19:32:08.617Z,7.97
2017-11-12T19:34:36.261Z,6.80
2017-11-12T19:37:03.946Z,5.90
2017-11-12T19:39:31.575Z,9.68
2017-11-12T19:41:59.210Z,7.00
2017-11-12T19:44:26.852Z,8.48
2017-11-12T19:46:54.484Z,6.35
2017-11-12T19:49:22.177Z,7.22
2017-11-12T19:51:50.753Z,6.43
2017-11-12T19:54:19.131Z,9.00
2017-11-12T19:56:46.919Z,8.95
2017-11-12T19:59:14.603Z,8.60
2017-11-12T20:01:43.755Z,7.00
2017-11-12T20:04:12.213Z,6.97
2017-11-12T20:06:39.904Z,10.82
2017-11-12T20:09:07.775Z,27.25
2017-11-12T20:11:35.370Z,7.68
2017-11-12T20:14:02.991Z,5.62
2017-11-12T20:16:30.570Z,7.80
2017-11-12T20:18:58.262Z,5.62
2017-11-12T20:21:26.667Z,7.07
2017-11-12T20:23:54.258Z,7.12
2017-11-12T20:26:21.886Z,6.10
2017-11-12T20:28:49.488Z,8.55
2017-11-12T20:31:17.119Z,4.50
2017-11-12T20:33:44.727Z,7.75
2017-11-12T20:36:12.312Z,3.85
2017-11-12T20:38:40.020Z,3.67
2017-11-12T20:41:07.686Z,6.85
2017-11-12T20:43:36.152Z,4.65
2017-11-12T20:46:03.783Z,5.82
2017-11-12T20:48:32.189Z,6.00
2017-11-12T20:50:59.797Z,12.45
2017-11-12T20:53:27.506Z,4.47
2017-11-12T20:55:55.900Z,4.00
2017-11-12T20:58:23.583Z,6.68
2017-11-12T21:00:53.227Z,4.40
2017-11-12T21:03:21.087Z,4.32
2017-11-12T21:05:51.228Z,5.40
2017-11-12T21:08:18.849Z,6.32
2017-11-12T21:10:46.526Z,6.07
2017-11-12T21:13:14.197Z,4.80
2017-11-12T21:15:41.864Z,7.18
2017-11-12T21:18:09.571Z,3.85
2017-11-12T21:20:40.066Z,4.70
2017-11-12T21:36:45.869Z,5.55
2017-11-12T21:39:16.602Z,3.97
2017-11-12T21:41:44.726Z,2.72
2017-11-12T21:44:13.027Z,4.20
2017-11-12T21:46:41.367Z,4.45
2017-11-12T21:49:10.196Z,5.20
2017-11-12T21:51:37.871Z,4.32
2017-11-12T21:54:05.462Z,3.80
2017-11-12T21:56:33.125Z,3.00
2017-11-12T21:59:00.707Z,3.00
2017-11-12T22:01:28.309Z,4.07
2017-11-12T22:03:55.913Z,4.93
2017-11-12T22:06:24.600Z,1.83
2017-11-12T22:08:52.222Z,2.75
2017-11-12T22:11:20.010Z,2.67
2017-11-12T22:13:47.557Z,3.10
2017-11-12T22:16:15.144Z,4.85
2017-11-12T22:18:42.758Z,3.58
2017-11-12T22:21:10.400Z,2.10
2017-11-12T22:23:38.009Z,2.60
2017-11-12T22:26:05.616Z,3.97
2017-11-12T22:28:33.214Z,2.65
2017-11-12T22:31:00.819Z,4.05
2017-11-12T22:33:28.482Z,9.32
2017-11-12T22:35:56.145Z,2.22
2017-11-12T22:38:23.754Z,1.90
2017-11-12T22:40:51.361Z,2.28
2017-11-12T22:43:19.885Z,3.45
2017-11-12T22:45:47.543Z,2.58
2017-11-12T22:48:15.723Z,6.35
2017-11-12T22:50:43.307Z,2.92
2017-11-12T22:53:11.473Z,6.28
2017-11-12T22:55:39.090Z,2.67
2017-11-12T22:58:06.690Z,3.12
2017-11-12T23:00:34.339Z,5.85
2017-11-12T23:03:01.909Z,2.40
2017-11-12T23:05:29.543Z,6.93
2017-11-12T23:07:57.897Z,2.08
2017-11-12T23:10:25.540Z,1.83
2017-11-12T23:12:53.362Z,2.33
2017-11-12T23:15:21.702Z,2.22
2017-11-12T23:17:50.980Z,3.40
2017-11-12T23:20:18.615Z,1.95
2017-11-12T23:22:46.230Z,2.60
2017-11-12T23:25:13.864Z,2.42
2017-11-12T23:27:41.467Z,2.30
2017-11-12T23:30:09.864Z,2.03
2017-11-12T23:32:38.205Z,1.90
2017-11-12T23:35:05.847Z,2.10
2017-11-12T23:37:34.544Z,2.55
2017-11-12T23:40:02.975Z,7.00
2017-11-12T23:42:30.558Z,2.72
2017-11-12T23:44:58.498Z,6.95
2017-11-12T23:47:26.105Z,4.40
2017-11-12T23:49:53.708Z,2.45
2017-11-12T23:52:21.322Z,4.70
2017-11-12T23:54:48.944Z,2.80
2017-11-12T23:57:17.271Z,2.42
2017-11-12T23:59:44.887Z,4.75
